createdAt,value
2023-04-20T03:42:03.711Z,100352.56
2023-04-20T03:45:07.522Z,100352.56
2023-04-20T03:48:10.273Z,100354.63
2023-04-20T03:51:13.355Z,100359.59
2023-04-20T03:54:16.093Z,100361.19
2023-04-20T03:57:19.543Z,100365.41
2023-04-20T04:00:22.664Z,100367.66
2023-04-20T04:03:32.240Z,100354.06
2023-04-20T04:06:35.049Z,100360.47
2023-04-20T04:09:37.966Z,100361.81
2023-04-20T04:12:40.732Z,100363.03
2023-04-20T04:15:43.573Z,100360.78
2023-04-20T04:18:47.334Z,100363.88
2023-04-20T04:21:50.405Z,100368.59
2023-04-20T04:24:54.545Z,100369.13
2023-04-20T04:27:58.146Z,100371.50
2023-04-20T04:31:01.798Z,100372.09
2023-04-20T04:34:04.778Z,100372.72
2023-04-20T04:37:08.621Z,100372.34
2023-04-20T04:40:13.879Z,100369.50
2023-04-20T04:43:19.583Z,100366.53
2023-04-20T04:46:25.516Z,100364.50
2023-04-20T04:49:29.359Z,100363.28
2023-04-20T04:52:35.737Z,100367.28
2023-04-20T04:55:38.275Z,100363.34
2023-04-20T04:58:41.401Z,100377.59
2023-04-20T05:01:44.021Z,100377.88
2023-04-20T05:04:47.305Z,100377.13
2023-04-20T05:07:50.058Z,100374.03
2023-04-20T05:10:53.126Z,100376.00
2023-04-20T05:13:55.827Z,100374.66
2023-04-20T05:17:00.063Z,100381.84
2023-04-20T05:20:04.209Z,100385.38
2023-04-20T05:23:07.171Z,100387.59
2023-04-20T05:26:09.782Z,100386.88
2023-04-20T05:29:13.334Z,100387.91
2023-04-20T05:32:16.097Z,100394.28
2023-04-20T05:35:19.458Z,100385.97
2023-04-20T05:38:22.063Z,100389.53
2023-04-20T05:41:27.345Z,100403.81
2023-04-20T05:44:30.466Z,100400.84
2023-04-20T05:47:33.454Z,100403.81
2023-04-20T05:50:36.336Z,100401.22
2023-04-20T05:53:39.263Z,100409.59
2023-04-20T05:56:41.677Z,100407.13
2023-04-20T05:59:45.406Z,100413.50
2023-04-20T06:02:48.474Z,100412.03
2023-04-20T06:05:51.642Z,100414.19
2023-04-20T06:08:55.125Z,100414.66
2023-04-20T06:11:58.065Z,100413.22
2023-04-20T06:15:01.631Z,100412.66
2023-04-20T06:18:05.072Z,100413.16
2023-04-20T06:21:09.688Z,100418.00
2023-04-20T06:24:12.550Z,100427.41
2023-04-20T06:27:16.085Z,100422.78
2023-04-20T06:30:19.057Z,100415.28
2023-04-20T06:33:22.005Z,100420.47
2023-04-20T06:36:24.980Z,100423.50
2023-04-20T06:39:27.768Z,100422.19
2023-04-20T06:42:30.803Z,100421.34
2023-04-20T06:45:34.297Z,100423.78
2023-04-20T06:48:37.700Z,100425.19
2023-04-20T06:51:40.712Z,100420.34
2023-04-20T06:54:43.482Z,100424.00
2023-04-20T06:57:46.113Z,100420.09
2023-04-20T07:00:48.923Z,100417.91
2023-04-20T07:03:52.791Z,100424.16
2023-04-20T07:06:55.910Z,100424.28
2023-04-20T07:09:58.568Z,100423.16
2023-04-20T07:13:01.375Z,100424.34
2023-04-20T07:16:04.535Z,100427.03
2023-04-20T07:19:07.689Z,100421.13
2023-04-20T07:22:10.480Z,100427.47
2023-04-20T07:25:13.406Z,100426.66
2023-04-20T07:28:16.087Z,100434.03
2023-04-20T07:31:19.006Z,100427.47
2023-04-20T07:34:22.136Z,100420.25
2023-04-20T07:37:27.161Z,100429.81
2023-04-20T07:40:30.416Z,100425.50
2023-04-20T07:43:33.648Z,100432.94
2023-04-20T07:46:36.463Z,100428.88
2023-04-20T07:49:40.915Z,100421.88
2023-04-20T07:52:46.605Z,100426.34
2023-04-20T07:55:50.932Z,100427.81
2023-04-20T07:58:53.825Z,100432.56
2023-04-20T08:02:01.849Z,100434.50
2023-04-20T08:05:05.830Z,100425.00
2023-04-20T08:08:08.918Z,100420.22
2023-04-20T08:11:12.667Z,100424.50
2023-04-20T08:14:16.387Z,100432.63
2023-04-20T08:17:19.441Z,100431.72
2023-04-20T08:20:22.048Z,100428.91
2023-04-20T08:23:27.946Z,100431.09
2023-04-20T08:26:31.732Z,100429.34
2023-04-20T08:29:34.734Z,100424.56
2023-04-20T08:32:37.763Z,100424.00
2023-04-20T08:35:41.045Z,100422.84
2023-04-20T08:38:43.577Z,100420.13
2023-04-20T08:41:48.070Z,100421.09
2023-04-20T08:44:54.582Z,100419.94
2023-04-20T08:48:05.202Z,100420.34
2023-04-20T08:51:08.751Z,100411.69
2023-04-20T08:54:12.613Z,100422.59
2023-04-20T08:57:15.577Z,100414.78
2023-04-20T09:00:18.743Z,100430.16
2023-04-20T09:03:34.837Z,100418.78
2023-04-20T09:06:44.036Z,100410.66
2023-04-20T09:10:00.331Z,100422.41
2023-04-20T09:13:03.283Z,100415.34
2023-04-20T09:16:13.618Z,100417.31
2023-04-20T09:19:22.524Z,100415.47
2023-04-20T09:22:36.695Z,100408.50
2023-04-20T09:25:41.223Z,100410.66
2023-04-20T09:28:44.124Z,100411.94
2023-04-20T09:31:48.297Z,100410.69
2023-04-20T09:34:51.214Z,100409.81
2023-04-20T09:37:54.534Z,100407.06
2023-04-20T09:41:01.497Z,100409.72
2023-04-20T09:44:05.868Z,100407.53
2023-04-20T09:47:19.150Z,100401.06
2023-04-20T09:50:28.880Z,100408.81
2023-04-20T09:53:33.702Z,100405.41
2023-04-20T09:56:36.934Z,100404.53
2023-04-20T09:59:43.629Z,100402.19
2023-04-20T10:02:48.496Z,100393.41
2023-04-20T10:05:55.583Z,100392.69
2023-04-20T10:09:01.275Z,100396.94
2023-04-20T10:12:09.338Z,100389.37
2023-04-20T10:15:12.241Z,100383.94
2023-04-20T10:18:17.651Z,100392.09
2023-04-20T10:21:21.777Z,100376.25
2023-04-20T10:24:31.599Z,100382.44
2023-04-20T10:27:34.266Z,100384.12
2023-04-20T10:30:37.852Z,100383.34
2023-04-20T10:33:56.318Z,100383.37
2023-04-20T10:37:14.165Z,100381.75
2023-04-20T10:40:17.710Z,100379.50
2023-04-20T10:43:21.733Z,100370.13
2023-04-20T10:46:24.998Z,100376.31
2023-04-20T10:49:29.437Z,100371.41
2023-04-20T10:52:38.652Z,100366.25
2023-04-20T10:55:41.555Z,100365.13
2023-04-20T10:58:44.308Z,100359.84
2023-04-20T11:01:48.341Z,100361.47
2023-04-20T11:04:51.600Z,100346.00
2023-04-20T11:07:59.610Z,100356.50
2023-04-20T11:11:02.555Z,100344.12
2023-04-20T11:14:09.642Z,100344.69
2023-04-20T11:17:12.261Z,100341.72
2023-04-20T11:20:17.774Z,100335.75
2023-04-20T11:23:21.669Z,100336.16
2023-04-20T11:26:35.314Z,100336.22
2023-04-20T11:29:39.774Z,100333.75
2023-04-20T11:32:43.386Z,100338.16
2023-04-20T11:35:46.226Z,100323.94
2023-04-20T11:38:49.809Z,100333.75
2023-04-20T11:41:53.489Z,100334.31
2023-04-20T11:44:56.563Z,100332.53
2023-04-20T11:48:00.105Z,100329.59
2023-04-20T11:51:04.014Z,100323.69
2023-04-20T11:54:07.516Z,100329.00
2023-04-20T11:57:10.692Z,100332.69
2023-04-20T12:00:13.654Z,100331.09
2023-04-20T12:03:16.382Z,100325.41
2023-04-20T12:06:20.447Z,100327.56
2023-04-20T12:09:23.044Z,100322.22
2023-04-20T12:12:26.769Z,100324.16
2023-04-20T12:15:29.855Z,100320.91
2023-04-20T12:18:32.732Z,100307.75
2023-04-20T12:21:35.765Z,100313.72
2023-04-20T12:24:38.502Z,100315.13
2023-04-20T12:27:41.184Z,100305.88
2023-04-20T12:30:44.132Z,100306.62
2023-04-20T12:33:46.754Z,100303.53
2023-04-20T12:36:49.513Z,100292.09
2023-04-20T12:39:52.267Z,100291.63
2023-04-20T12:42:55.371Z,100288.97
2023-04-20T12:45:57.962Z,100287.81
2023-04-20T12:49:00.912Z,100289.78
2023-04-20T12:52:04.458Z,100283.81
2023-04-20T12:55:09.538Z,100279.03
2023-04-20T12:58:12.707Z,100265.66
2023-04-20T13:01:15.823Z,100269.84
2023-04-20T13:04:18.696Z,100259.31
2023-04-20T13:07:22.074Z,100261.34
2023-04-20T13:10:24.827Z,100257.75
2023-04-20T13:13:29.715Z,100254.72
2023-04-20T13:16:32.953Z,100246.38
2023-04-20T13:19:35.982Z,100251.66
2023-04-20T13:22:47.058Z,100245.94
2023-04-20T13:26:01.695Z,100241.69
2023-04-20T13:29:04.557Z,100248.78
2023-04-20T13:32:07.567Z,100218.56
2023-04-20T13:35:12.451Z,100221.59
2023-04-20T13:38:15.306Z,100220.03
2023-04-20T13:41:17.939Z,100220.88
2023-04-20T13:44:21.475Z,100212.16
2023-04-20T13:47:24.372Z,100208.16
2023-04-20T13:50:27.367Z,100199.47
2023-04-20T13:53:30.031Z,100194.22
2023-04-20T13:56:34.412Z,100206.25
2023-04-20T13:59:37.072Z,100195.25
2023-04-20T14:02:40.286Z,100202.31
2023-04-20T14:05:44.345Z,100210.31
2023-04-20T14:08:47.146Z,100208.41
2023-04-20T14:11:54.091Z,100207.63
2023-04-20T14:14:59.804Z,100193.63
2023-04-20T14:18:02.859Z,100201.00
2023-04-20T14:21:05.858Z,100195.66
2023-04-20T14:24:10.275Z,100181.34
2023-04-20T14:27:12.967Z,100185.09
2023-04-20T14:30:16.197Z,100173.69
2023-04-20T14:33:18.991Z,100170.72
2023-04-20T14:36:21.930Z,100182.75
2023-04-20T14:39:24.940Z,100183.31
2023-04-20T14:42:28.024Z,100174.38
2023-04-20T14:45:30.668Z,100175.31
2023-04-20T14:48:33.936Z,100174.25
2023-04-20T14:51:36.664Z,100181.38
2023-04-20T14:54:41.596Z,100172.91
2023-04-20T14:57:44.264Z,100176.47
2023-04-20T15:00:48.992Z,100176.88
2023-04-20T15:03:52.000Z,100175.06
2023-04-20T15:06:55.150Z,100173.63
2023-04-20T15:09:57.835Z,100169.56
2023-04-20T15:13:00.748Z,100171.91
2023-04-20T15:16:03.394Z,100165.50
2023-04-20T15:19:06.722Z,100177.03
2023-04-20T15:22:09.507Z,100168.28
2023-04-20T15:25:12.506Z,100163.47
2023-04-20T15:28:15.302Z,100166.97
